createdAt,value
2022-12-01T00:01:29.607Z,96.44
2022-12-01T00:03:59.836Z,97.30
2022-12-01T00:06:27.720Z,97.64
2022-12-01T00:09:19.231Z,97.07
2022-12-01T00:11:48.332Z,96.85
2022-12-01T00:14:16.833Z,97.14
2022-12-01T00:16:45.187Z,97.10
2022-12-01T00:19:14.559Z,98.48
2022-12-01T00:21:42.529Z,100.00
2022-12-01T00:24:11.853Z,100.00
2022-12-01T00:26:40.163Z,98.98
2022-12-01T00:29:09.216Z,98.85
2022-12-01T00:31:37.485Z,98.33
2022-12-01T00:34:09.707Z,96.62
2022-12-01T00:36:40.867Z,97.07
2022-12-01T00:39:08.674Z,96.99
2022-12-01T00:41:36.602Z,97.02
2022-12-01T00:44:04.657Z,95.63
2022-12-01T00:46:32.695Z,95.57
2022-12-01T00:49:00.775Z,96.99
2022-12-01T00:51:28.697Z,97.83
2022-12-01T00:53:58.452Z,98.49
2022-12-01T00:56:26.326Z,97.83
2022-12-01T00:58:54.217Z,97.84
2022-12-01T01:01:22.193Z,98.03
2022-12-01T01:03:50.162Z,99.01
2022-12-01T01:06:18.182Z,97.04
2022-12-01T01:08:46.304Z,94.62
2022-12-01T01:11:15.525Z,95.13
2022-12-01T01:13:43.494Z,94.33
2022-12-01T01:16:16.741Z,93.84
2022-12-01T01:18:44.847Z,94.59
2022-12-01T01:21:15.603Z,94.91
2022-12-01T01:23:43.562Z,95.88
2022-12-01T01:26:13.994Z,95.90
2022-12-01T01:28:43.306Z,95.94
2022-12-01T01:31:14.192Z,95.37
2022-12-01T01:33:42.775Z,94.64
2022-12-01T01:36:11.343Z,93.79
2022-12-01T01:38:39.336Z,94.39
2022-12-01T01:41:07.949Z,92.89
2022-12-01T01:43:48.497Z,93.84
2022-12-01T01:46:18.565Z,92.40
2022-12-01T01:48:50.724Z,92.92
2022-12-01T01:51:23.695Z,92.59
2022-12-01T01:53:55.621Z,92.09
2022-12-01T01:56:24.184Z,92.42
2022-12-01T01:58:54.211Z,92.76
2022-12-01T02:01:22.949Z,92.57
2022-12-01T02:03:53.420Z,92.58
2022-12-01T02:06:22.066Z,92.76
2022-12-01T02:08:50.085Z,93.97
2022-12-01T02:11:49.404Z,94.81
2022-12-01T02:14:40.560Z,94.57
2022-12-01T02:17:23.413Z,93.87
2022-12-01T02:20:17.788Z,94.93
2022-12-01T02:22:55.212Z,94.70
2022-12-01T02:25:34.402Z,94.54
2022-12-01T02:28:44.178Z,95.20
2022-12-01T02:31:18.111Z,94.40
2022-12-01T02:33:55.044Z,94.05
2022-12-01T02:36:31.435Z,94.91
2022-12-01T02:39:06.953Z,94.76
2022-12-01T02:41:40.231Z,95.30
2022-12-01T02:44:14.970Z,94.22
2022-12-01T02:46:48.626Z,94.46
2022-12-01T02:49:20.233Z,94.67
2022-12-01T02:51:50.211Z,93.75
2022-12-01T02:54:19.047Z,93.97
2022-12-01T02:56:47.406Z,93.05
2022-12-01T02:59:16.297Z,92.55
2022-12-01T03:02:05.775Z,92.79
2022-12-01T03:04:46.360Z,93.06
2022-12-01T03:07:27.271Z,94.95
2022-12-01T03:10:05.818Z,94.83
2022-12-01T03:12:40.241Z,94.62
2022-12-01T03:15:12.204Z,94.40
2022-12-01T03:17:57.151Z,94.99
2022-12-01T03:20:35.898Z,94.43
2022-12-01T03:23:09.610Z,94.17
2022-12-01T03:25:39.002Z,94.12
2022-12-01T03:28:24.853Z,94.28
2022-12-01T03:30:58.735Z,93.86
2022-12-01T03:33:32.580Z,93.98
2022-12-01T03:36:05.663Z,93.52
2022-12-01T03:38:36.338Z,94.63
2022-12-01T03:41:10.416Z,93.45
2022-12-01T03:43:44.122Z,93.04
2022-12-01T03:46:18.585Z,91.88
2022-12-01T03:48:48.041Z,92.55
2022-12-01T03:51:22.253Z,92.89
2022-12-01T03:53:56.825Z,91.80
2022-12-01T03:56:30.618Z,92.07
2022-12-01T03:59:01.268Z,92.58
2022-12-01T04:01:32.839Z,90.75
2022-12-01T04:04:07.118Z,90.70
2022-12-01T04:06:35.223Z,91.47
2022-12-01T04:09:03.393Z,91.13
2022-12-01T04:11:48.755Z,91.47
2022-12-01T04:14:16.623Z,93.57
2022-12-01T04:16:44.646Z,92.33
2022-12-01T04:19:13.870Z,93.13
2022-12-01T04:21:41.909Z,92.63
2022-12-01T04:24:10.244Z,91.87
2022-12-01T04:26:38.553Z,91.60
2022-12-01T04:29:08.394Z,91.67
2022-12-01T04:31:36.444Z,90.10
2022-12-01T04:34:05.103Z,90.43
2022-12-01T04:36:35.911Z,90.44
2022-12-01T04:39:04.870Z,90.40
2022-12-01T04:41:32.790Z,90.18
2022-12-01T04:44:00.788Z,91.17
2022-12-01T04:46:29.016Z,92.14
2022-12-01T04:48:57.005Z,91.75
2022-12-01T04:51:24.965Z,91.04
2022-12-01T04:53:54.224Z,91.60
2022-12-01T04:56:22.357Z,90.38
2022-12-01T04:58:50.359Z,89.19
2022-12-01T05:01:19.697Z,90.06
2022-12-01T05:03:50.326Z,89.11
2022-12-01T05:06:20.458Z,89.82
2022-12-01T05:08:49.234Z,91.59
2022-12-01T05:11:19.628Z,90.10
2022-12-01T05:13:49.465Z,91.38
2022-12-01T05:16:19.546Z,91.03
2022-12-01T05:18:50.603Z,92.69
2022-12-01T05:21:18.352Z,92.14
2022-12-01T05:23:46.617Z,90.24
2022-12-01T05:26:14.753Z,89.36
2022-12-01T05:28:44.094Z,89.59
2022-12-01T05:31:15.755Z,90.24
2022-12-01T05:33:43.784Z,89.56
2022-12-01T05:36:11.791Z,88.07
2022-12-01T05:38:39.619Z,89.87
2022-12-01T05:41:07.811Z,88.92
2022-12-01T05:43:35.860Z,88.28
2022-12-01T05:46:05.385Z,88.31
2022-12-01T05:48:33.456Z,88.20
2022-12-01T05:51:01.475Z,90.84
2022-12-01T05:53:29.879Z,92.07
2022-12-01T05:55:57.760Z,93.59
2022-12-01T05:58:25.728Z,94.23
2022-12-01T06:00:53.647Z,92.89
2022-12-01T06:03:23.004Z,91.79
2022-12-01T06:05:51.255Z,90.08
2022-12-01T06:08:19.256Z,88.38
2022-12-01T06:10:48.179Z,90.38
2022-12-01T06:13:16.309Z,90.19
2022-12-01T06:15:44.364Z,87.62
2022-12-01T06:18:12.257Z,88.53
2022-12-01T06:20:41.449Z,88.50
2022-12-01T06:23:11.937Z,90.45
2022-12-01T06:25:39.948Z,91.41
2022-12-01T06:28:07.829Z,91.75
2022-12-01T06:30:35.758Z,90.97
2022-12-01T06:33:03.854Z,89.16
2022-12-01T06:35:31.777Z,88.63
2022-12-01T06:38:01.258Z,88.17
2022-12-01T06:40:29.466Z,89.21
2022-12-01T06:43:01.526Z,88.14
2022-12-01T06:45:30.014Z,89.19
2022-12-01T06:47:58.805Z,89.83
2022-12-01T06:50:27.847Z,89.83
2022-12-01T06:52:55.902Z,89.74
2022-12-01T06:55:25.529Z,88.96
2022-12-01T06:57:53.946Z,89.45
2022-12-01T07:00:22.916Z,88.75
2022-12-01T07:02:50.906Z,88.83
2022-12-01T07:05:18.905Z,87.81
2022-12-01T07:07:47.012Z,85.96
2022-12-01T07:10:15.207Z,86.73
2022-12-01T07:12:44.559Z,84.74
2022-12-01T07:15:13.566Z,85.22
2022-12-01T07:17:41.361Z,85.96
2022-12-01T07:20:11.367Z,84.70
2022-12-01T07:22:39.955Z,84.76
2022-12-01T07:25:08.752Z,84.31
2022-12-01T07:27:37.038Z,84.29
2022-12-01T07:30:07.921Z,84.77
2022-12-01T07:32:36.057Z,84.26
2022-12-01T07:35:06.342Z,83.82
2022-12-01T07:37:34.274Z,83.74
2022-12-01T07:40:02.309Z,81.75
2022-12-01T07:42:30.208Z,83.34
2022-12-01T07:44:58.286Z,85.47
2022-12-01T07:47:27.694Z,85.55
2022-12-01T07:49:55.773Z,85.62
2022-12-01T07:52:23.705Z,84.20
2022-12-01T07:54:52.696Z,84.33
2022-12-01T07:57:20.642Z,84.01
2022-12-01T07:59:49.075Z,84.29
2022-12-01T08:02:17.313Z,84.95
2022-12-01T08:04:46.717Z,84.54
2022-12-01T08:07:14.664Z,84.18
2022-12-01T08:09:42.619Z,84.55
2022-12-01T08:12:10.500Z,85.46
2022-12-01T08:14:38.451Z,86.88
2022-12-01T08:17:06.417Z,86.49
2022-12-01T08:19:34.311Z,87.20
2022-12-01T08:22:03.507Z,87.10
2022-12-01T08:24:31.493Z,86.95
2022-12-01T08:26:59.336Z,87.50
2022-12-01T08:29:27.292Z,88.40
2022-12-01T08:31:55.274Z,87.23
2022-12-01T08:34:23.559Z,85.70
2022-12-01T08:36:51.388Z,86.44
2022-12-01T08:39:20.812Z,85.56
2022-12-01T08:41:48.832Z,87.41
2022-12-01T08:44:16.699Z,86.91
2022-12-01T08:46:44.653Z,86.51
2022-12-01T08:49:12.667Z,86.81
2022-12-01T08:51:40.757Z,87.54
2022-12-01T08:54:08.729Z,87.99
2022-12-01T08:56:41.422Z,89.46
2022-12-01T08:59:10.323Z,88.77
2022-12-01T09:01:52.137Z,89.47
2022-12-01T09:04:21.206Z,87.47
2022-12-01T09:06:50.492Z,86.70
2022-12-01T09:09:20.989Z,86.03
2022-12-01T09:11:52.183Z,86.85
2022-12-01T09:14:21.648Z,86.46
2022-12-01T09:16:51.087Z,87.96
2022-12-01T09:19:24.630Z,88.28
2022-12-01T09:21:53.449Z,86.92
2022-12-01T09:24:24.734Z,85.32
2022-12-01T09:26:57.722Z,83.63
2022-12-01T09:29:26.619Z,82.49
2022-12-01T09:31:56.379Z,81.86
2022-12-01T09:34:24.854Z,82.37
2022-12-01T09:36:56.308Z,81.40
2022-12-01T09:39:24.797Z,81.95
2022-12-01T09:41:58.744Z,82.00
2022-12-01T09:44:36.890Z,81.25
2022-12-01T09:47:12.842Z,81.81
2022-12-01T09:49:51.340Z,83.29
2022-12-01T09:52:22.001Z,82.35
2022-12-01T09:54:50.259Z,82.74
2022-12-01T09:57:31.267Z,82.41
2022-12-01T10:00:00.953Z,82.53
2022-12-01T10:02:35.600Z,81.35
2022-12-01T10:05:07.798Z,82.72
2022-12-01T10:07:41.750Z,82.04
2022-12-01T10:10:16.182Z,82.13
2022-12-01T10:12:48.164Z,81.73
2022-12-01T10:15:26.122Z,82.89
2022-12-01T10:18:06.578Z,81.91
2022-12-01T10:20:43.512Z,80.93
2022-12-01T10:23:28.600Z,79.05
2022-12-01T10:25:59.453Z,81.55
2022-12-01T10:28:54.351Z,84.25
2022-12-01T10:31:28.583Z,85.05
2022-12-01T10:34:02.677Z,85.29
2022-12-01T10:36:33.089Z,84.02
2022-12-01T10:39:01.962Z,84.70
2022-12-01T10:41:33.359Z,85.66
2022-12-01T10:44:05.655Z,84.34
2022-12-01T10:46:41.925Z,82.21
2022-12-01T10:49:11.916Z,82.22
2022-12-01T10:52:03.840Z,81.04
2022-12-01T10:54:35.377Z,82.51
2022-12-01T10:57:04.814Z,81.54
2022-12-01T10:59:38.933Z,79.48
2022-12-01T11:02:17.211Z,78.87
2022-12-01T11:04:52.219Z,79.49
2022-12-01T11:07:23.441Z,84.01
2022-12-01T11:10:02.967Z,85.15
2022-12-01T11:12:31.174Z,83.49
2022-12-01T11:15:01.147Z,82.37
2022-12-01T11:17:36.046Z,82.78
2022-12-01T11:20:30.848Z,81.63
2022-12-01T11:23:24.762Z,83.39
2022-12-01T11:26:06.584Z,84.54
2022-12-01T11:28:36.126Z,83.05
2022-12-01T11:31:08.627Z,81.44
2022-12-01T11:33:45.794Z,82.15
2022-12-01T11:36:22.469Z,80.79
2022-12-01T11:38:51.845Z,80.99
2022-12-01T11:41:32.291Z,80.50
2022-12-01T11:44:04.107Z,79.03
2022-12-01T11:46:50.189Z,80.04
2022-12-01T11:49:26.244Z,81.15
2022-12-01T11:51:54.229Z,78.47
2022-12-01T11:54:24.912Z,77.24
2022-12-01T11:57:25.421Z,77.65
2022-12-01T11:59:42.322Z,77.24
2022-12-01T12:02:25.175Z,77.10
2022-12-01T12:05:16.344Z,78.32
2022-12-01T12:07:59.753Z,77.70
2022-12-01T12:10:42.789Z,78.94
2022-12-01T12:13:40.637Z,80.27
2022-12-01T12:16:18.040Z,81.24
2022-12-01T12:19:15.053Z,78.99
2022-12-01T12:21:53.607Z,78.60
2022-12-01T12:24:42.971Z,80.03
2022-12-01T12:27:21.080Z,81.06
2022-12-01T12:30:03.334Z,80.01
2022-12-01T12:33:04.129Z,79.46
2022-12-01T12:35:41.844Z,79.79
2022-12-01T12:38:18.051Z,81.03
2022-12-01T12:40:56.061Z,81.05
2022-12-01T12:43:33.290Z,81.24
2022-12-01T12:46:06.062Z,79.96
2022-12-01T12:49:18.771Z,79.70
2022-12-01T12:51:52.209Z,81.17
2022-12-01T12:54:28.097Z,79.53
2022-12-01T12:57:01.914Z,79.81
2022-12-01T12:59:37.289Z,79.07
2022-12-01T13:02:13.995Z,78.65
2022-12-01T13:04:52.230Z,80.87
2022-12-01T13:07:34.500Z,80.59
2022-12-01T13:10:10.319Z,78.96
2022-12-01T13:12:41.790Z,79.55
2022-12-01T13:15:17.562Z,78.80
2022-12-01T13:17:49.638Z,79.36
2022-12-01T13:20:20.358Z,79.91
2022-12-01T13:22:50.660Z,79.41
2022-12-01T13:25:24.669Z,80.57
2022-12-01T13:27:54.244Z,80.32
2022-12-01T13:30:24.534Z,80.46
2022-12-01T13:33:01.089Z,79.74
2022-12-01T13:35:32.624Z,79.80
2022-12-01T13:38:24.887Z,78.89
2022-12-01T13:41:11.904Z,78.94
2022-12-01T13:44:04.334Z,80.09
2022-12-01T13:46:50.559Z,81.64
2022-12-01T13:49:36.816Z,82.29
2022-12-01T13:52:29.984Z,81.60
2022-12-01T13:55:22.107Z,80.01
2022-12-01T13:58:14.049Z,80.05
2022-12-01T14:00:43.626Z,80.80
2022-12-01T14:03:38.701Z,82.71
2022-12-01T14:06:10.705Z,81.54
2022-12-01T14:08:47.959Z,81.51
2022-12-01T14:11:26.004Z,83.14
2022-12-01T14:13:59.414Z,83.40
2022-12-01T14:16:46.997Z,82.20
2022-12-01T14:19:31.540Z,81.72
2022-12-01T14:22:01.096Z,81.39
2022-12-01T14:24:34.689Z,82.07
2022-12-01T14:27:05.748Z,83.14
2022-12-01T14:29:35.063Z,84.78
2022-12-01T14:32:27.001Z,84.30
2022-12-01T14:35:06.802Z,84.14
2022-12-01T14:37:41.393Z,84.21
2022-12-01T14:40:19.566Z,84.39
2022-12-01T14:43:12.422Z,84.59
2022-12-01T14:45:44.164Z,85.39
2022-12-01T14:48:15.449Z,85.31
2022-12-01T14:50:50.284Z,85.30
2022-12-01T14:53:24.680Z,85.65
2022-12-01T14:55:57.774Z,86.91
2022-12-01T14:58:29.631Z,86.20
2022-12-01T15:01:05.900Z,85.61
2022-12-01T15:03:39.268Z,87.02
2022-12-01T15:06:07.952Z,86.76
2022-12-01T15:08:45.750Z,86.88
2022-12-01T15:11:22.713Z,87.24
2022-12-01T15:13:53.412Z,87.38
2022-12-01T15:16:23.700Z,87.06
2022-12-01T15:18:53.220Z,86.93
2022-12-01T15:21:24.789Z,87.44
2022-12-01T15:23:57.980Z,87.79
2022-12-01T15:26:28.280Z,88.08
2022-12-01T15:29:16.004Z,88.20
2022-12-01T15:31:47.736Z,86.91
2022-12-01T15:34:20.033Z,86.96
2022-12-01T15:36:49.405Z,85.83
2022-12-01T15:39:21.953Z,84.78
2022-12-01T15:41:54.136Z,85.72
2022-12-01T15:44:29.237Z,85.88
2022-12-01T15:46:57.795Z,85.35
2022-12-01T15:49:29.621Z,85.86
2022-12-01T15:52:07.883Z,85.89
2022-12-01T15:54:38.152Z,84.48
2022-12-01T15:57:07.466Z,83.33
2022-12-01T15:59:40.274Z,84.58
2022-12-01T16:02:26.816Z,83.21
2022-12-01T16:05:03.248Z,82.37
2022-12-01T16:08:11.676Z,83.17
2022-12-01T16:10:30.369Z,85.27
2022-12-01T16:13:36.307Z,86.41
2022-12-01T16:16:31.734Z,85.71
2022-12-01T16:19:03.094Z,86.36
2022-12-01T16:21:35.116Z,87.12
2022-12-01T16:24:04.949Z,86.66
2022-12-01T16:26:34.562Z,87.48
2022-12-01T16:29:02.493Z,86.92
2022-12-01T16:31:33.311Z,87.86
2022-12-01T16:34:13.816Z,87.14
2022-12-01T16:36:47.319Z,86.86
2022-12-01T16:39:15.788Z,88.36
2022-12-01T16:41:46.683Z,87.04
2022-12-01T16:44:30.873Z,87.67
2022-12-01T16:47:00.106Z,87.92
2022-12-01T16:49:28.564Z,87.80
2022-12-01T16:51:57.418Z,86.35
2022-12-01T16:54:26.396Z,85.01
2022-12-01T16:56:54.222Z,85.67
2022-12-01T16:59:22.079Z,86.60
2022-12-01T17:01:50.102Z,86.16
2022-12-01T17:04:19.396Z,86.74
2022-12-01T17:06:47.392Z,87.22
2022-12-01T17:09:15.242Z,86.33
2022-12-01T17:11:43.318Z,85.25
2022-12-01T17:14:11.216Z,85.03
2022-12-01T17:16:39.452Z,85.54
2022-12-01T17:19:07.414Z,85.29
2022-12-01T17:21:36.734Z,86.13
2022-12-01T17:24:07.022Z,87.70
2022-12-01T17:26:35.734Z,85.51
2022-12-01T17:29:03.802Z,85.39
2022-12-01T17:31:32.027Z,85.03
2022-12-01T17:33:59.987Z,86.52
2022-12-01T17:36:27.824Z,85.56
2022-12-01T17:38:58.683Z,85.26
2022-12-01T17:41:32.176Z,87.88
2022-12-01T17:44:03.492Z,88.19
2022-12-01T17:46:31.752Z,87.64
2022-12-01T17:48:59.834Z,88.16
2022-12-01T17:51:27.986Z,86.84
2022-12-01T17:53:57.281Z,87.96
2022-12-01T17:56:25.279Z,88.38
2022-12-01T17:58:53.185Z,86.77
2022-12-01T18:01:25.423Z,85.54
2022-12-01T18:03:58.546Z,85.24
2022-12-01T18:06:26.954Z,85.33
2022-12-01T18:08:56.602Z,84.42
2022-12-01T18:11:26.009Z,85.52
2022-12-01T18:13:54.355Z,87.63
2022-12-01T18:16:25.101Z,88.59
2022-12-01T18:18:54.125Z,86.69
2022-12-01T18:21:23.969Z,85.84
2022-12-01T18:23:52.959Z,86.00
2022-12-01T18:26:22.350Z,87.13
2022-12-01T18:28:56.993Z,87.75
2022-12-01T18:31:26.342Z,88.15
2022-12-01T18:33:54.403Z,87.98
2022-12-01T18:36:24.509Z,87.56
2022-12-01T18:38:54.592Z,86.66
2022-12-01T18:41:23.510Z,87.09
2022-12-01T18:43:52.018Z,86.04
2022-12-01T18:46:21.763Z,86.91
2022-12-01T18:48:51.633Z,87.80
2022-12-01T18:51:23.773Z,87.33
2022-12-01T18:53:55.039Z,86.77
2022-12-01T18:56:23.601Z,86.61
2022-12-01T18:58:56.029Z,85.61
2022-12-01T19:01:31.912Z,85.55
2022-12-01T19:04:00.936Z,86.36
2022-12-01T19:06:30.742Z,85.69
2022-12-01T19:09:02.107Z,84.58
2022-12-01T19:11:33.520Z,85.61
2022-12-01T19:14:04.704Z,84.74
2022-12-01T19:16:34.460Z,85.43
2022-12-01T19:19:06.812Z,86.64
2022-12-01T19:21:37.561Z,86.98
2022-12-01T19:24:08.829Z,86.72
2022-12-01T19:26:37.408Z,87.00
2022-12-01T19:29:08.208Z,87.23
2022-12-01T19:31:37.940Z,87.53
2022-12-01T19:34:10.071Z,86.52
2022-12-01T19:36:41.338Z,86.84
2022-12-01T19:39:10.320Z,86.94
2022-12-01T19:41:40.840Z,87.46
2022-12-01T19:44:10.061Z,87.22
2022-12-01T19:46:40.420Z,85.80
2022-12-01T19:49:08.438Z,85.48
2022-12-01T19:51:40.065Z,87.25
2022-12-01T19:54:15.160Z,87.03
2022-12-01T19:56:43.426Z,88.50
2022-12-01T19:59:13.137Z,88.84
2022-12-01T20:01:42.856Z,88.84
2022-12-01T20:04:11.195Z,88.39
2022-12-01T20:06:39.254Z,88.80
2022-12-01T20:09:13.360Z,87.21
2022-12-01T20:11:41.834Z,86.12
2022-12-01T20:14:11.787Z,87.50
2022-12-01T20:16:40.625Z,88.25
2022-12-01T20:19:11.253Z,87.29
2022-12-01T20:21:43.346Z,86.96
2022-12-01T20:24:13.625Z,87.31
2022-12-01T20:26:47.514Z,88.61
2022-12-01T20:29:22.362Z,90.13
2022-12-01T20:31:54.413Z,89.94
2022-12-01T20:34:27.977Z,90.00
2022-12-01T20:36:57.272Z,90.24
2022-12-01T20:39:25.684Z,90.37
2022-12-01T20:41:53.912Z,89.60
2022-12-01T20:44:22.254Z,89.29
2022-12-01T20:46:51.091Z,88.81
2022-12-01T20:49:21.368Z,87.87
2022-12-01T20:51:55.251Z,88.07
2022-12-01T20:54:29.096Z,89.26
2022-12-01T20:56:59.609Z,89.34
2022-12-01T20:59:32.035Z,89.47
2022-12-01T21:02:00.289Z,88.50
2022-12-01T21:04:30.819Z,88.83
2022-12-01T21:07:01.077Z,89.22
2022-12-01T21:09:30.465Z,89.67
2022-12-01T21:12:20.668Z,88.10
2022-12-01T21:15:01.079Z,88.17
2022-12-01T21:17:34.135Z,88.85
2022-12-01T21:20:12.867Z,88.78
2022-12-01T21:22:42.475Z,89.90
2022-12-01T21:25:15.428Z,89.97
2022-12-01T21:27:43.970Z,90.06
2022-12-01T21:30:18.119Z,88.71
2022-12-01T21:32:47.721Z,89.26
2022-12-01T21:35:19.183Z,88.36
2022-12-01T21:37:49.497Z,89.54
2022-12-01T21:40:22.079Z,90.17
2022-12-01T21:42:51.265Z,88.65
2022-12-01T21:45:23.902Z,89.37
2022-12-01T21:47:52.003Z,87.02
2022-12-01T21:50:23.440Z,85.84
2022-12-01T21:52:53.014Z,86.77
2022-12-01T21:55:37.716Z,87.98
2022-12-01T21:58:28.169Z,88.28
2022-12-01T22:00:57.976Z,86.35
2022-12-01T22:03:32.908Z,86.39
2022-12-01T22:08:55.041Z,86.11
2022-12-01T22:11:24.816Z,86.31
2022-12-01T22:14:00.254Z,85.71
2022-12-01T22:16:30.924Z,86.97
2022-12-01T22:19:00.446Z,86.73
2022-12-01T22:21:38.249Z,87.35
2022-12-01T22:24:23.825Z,87.93
2022-12-01T22:27:11.954Z,86.90
2022-12-01T22:29:43.051Z,84.99
2022-12-01T22:32:37.353Z,85.81
2022-12-01T22:35:27.210Z,85.75
2022-12-01T22:37:59.143Z,86.58
2022-12-01T22:40:38.666Z,85.30
2022-12-01T22:43:32.960Z,87.78
2022-12-01T22:46:27.545Z,89.81
2022-12-01T22:48:57.481Z,91.92
2022-12-01T22:51:37.137Z,93.77
2022-12-01T22:54:27.271Z,94.65
2022-12-01T22:57:04.916Z,94.64
2022-12-01T22:59:37.036Z,91.72
2022-12-01T23:02:20.426Z,91.75
2022-12-01T23:04:50.788Z,92.30
2022-12-01T23:07:28.592Z,93.51
2022-12-01T23:09:58.903Z,92.28
2022-12-01T23:12:30.471Z,91.05
2022-12-01T23:15:01.736Z,91.26
2022-12-01T23:17:31.433Z,91.01
2022-12-01T23:20:23.844Z,90.73
2022-12-01T23:22:54.358Z,91.43
2022-12-01T23:25:23.471Z,90.79
2022-12-01T23:27:54.453Z,90.44
2022-12-01T23:30:24.163Z,91.42
2022-12-01T23:33:04.625Z,91.34
2022-12-01T23:35:37.334Z,90.35
2022-12-01T23:38:05.258Z,90.00
2022-12-01T23:40:35.281Z,89.69
2022-12-01T23:43:16.639Z,89.17
2022-12-01T23:45:45.470Z,88.30
2022-12-01T23:48:19.251Z,88.14
2022-12-01T23:50:48.555Z,88.45
2022-12-01T23:53:34.520Z,88.73
2022-12-01T23:56:07.161Z,89.26
2022-12-01T23:58:36.748Z,89.21
